Time;durP1;ratioP1;P1;durP2;ratioP2;P2;SDS_P1;SDS_P2;PMS_P1;PMS_P2;Temp;Humidity;BMP_temperature;BMP_pressure;BME280_temperature;BME280_humidity;BME280_pressure;Samples;Min_cycle;Max_cycle;Signal;HPM_P1;HPM_P2
2021/12/17 00:00:31;;;;;;;3.92;3.53;;;21.20;35.20;;;;;;5108297;27;46912;-18
2021/12/17 00:03:15;;;;;;;5.97;3.67;;;21.20;35.20;;;;;;5108621;27;46896;-18
2021/12/17 00:05:51;;;;;;;4.45;3.75;;;21.20;35.10;;;;;;5107924;27;49155;-27
2021/12/17 00:08:18;;;;;;;5.07;3.65;;;21.20;35.10;;;;;;5107851;27;46894;-27
2021/12/17 00:10:45;;;;;;;3.92;3.58;;;21.20;35.10;;;;;;5108249;27;46795;-27
2021/12/17 00:13:11;;;;;;;4.22;3.78;;;21.20;35.10;;;;;;5108460;27;47165;-28
2021/12/17 00:15:39;;;;;;;4.35;3.70;;;21.20;35.10;;;;;;5108131;27;48935;-27
2021/12/17 00:18:13;;;;;;;4.07;3.65;;;21.20;35.10;;;;;;5107811;27;46991;-27
2021/12/17 00:48:35;;;;;;;4.57;3.35;;;21.10;34.90;;;;;;5104772;27;47335;-27
2021/12/17 00:51:33;;;;;;;4.00;3.50;;;21.10;34.90;;;;;;5107304;27;46813;-27
2021/12/17 00:53:58;;;;;;;4.78;3.78;;;21.10;34.90;;;;;;5106995;27;46901;-28
2021/12/17 00:56:26;;;;;;;3.83;3.45;;;21.10;34.90;;;;;;5107547;27;46928;-19
2021/12/17 00:58:53;;;;;;;4.20;3.67;;;21.10;34.80;;;;;;5107284;27;49200;-19
2021/12/17 01:01:20;;;;;;;4.05;3.60;;;21.10;34.80;;;;;;5107170;27;46979;-27
2021/12/17 01:03:47;;;;;;;3.78;3.33;;;21.10;34.80;;;;;;5107211;27;46888;-27
2021/12/17 01:06:13;;;;;;;4.40;3.58;;;21.10;34.80;;;;;;5107915;27;46906;-27
2021/12/17 01:08:40;;;;;;;3.67;3.20;;;21.10;34.90;;;;;;5107261;27;47063;-27
2021/12/17 01:11:07;;;;;;;4.43;3.60;;;21.10;34.90;;;;;;5107442;27;47502;-27
2021/12/17 01:13:35;;;;;;;3.38;3.08;;;21.10;34.80;;;;;;5107351;27;47009;-19
2021/12/17 01:16:02;;;;;;;4.63;3.70;;;21.10;34.80;;;;;;5107032;27;47381;-18
2021/12/17 01:18:42;;;;;;;3.70;3.40;;;21.10;34.80;;;;;;5106233;27;46839;-19
2021/12/17 01:24:07;;;;;;;4.65;3.58;;;21.10;34.80;;;;;;5102913;27;47166;-17
2021/12/17 01:40:56;;;;;;;3.38;3.05;;;21.10;34.70;;;;;;5105570;27;46817;-18
2021/12/17 01:43:23;;;;;;;4.03;3.63;;;21.10;34.70;;;;;;5106990;27;46995;-18
2021/12/17 01:45:51;;;;;;;3.83;3.22;;;21.10;34.70;;;;;;5106712;27;46911;-18
2021/12/17 01:48:22;;;;;;;4.60;3.30;;;21.10;34.70;;;;;;5106819;27;46900;-19
2021/12/17 01:56:30;;;;;;;3.63;3.33;;;21.10;34.70;;;;;;5103850;27;46944;-18
2021/12/17 02:01:43;;;;;;;3.17;2.92;;;21.10;34.70;;;;;;5103660;27;47468;-27
2021/12/17 02:04:09;;;;;;;4.18;3.15;;;21.10;34.70;;;;;;5106692;27;46992;-27
2021/12/17 02:06:38;;;;;;;3.42;3.13;;;21.10;34.70;;;;;;5106580;27;46814;-27
2021/12/17 02:09:14;;;;;;;3.20;2.90;;;21.10;34.70;;;;;;5106265;27;47128;-27
2021/12/17 02:20:13;;;;;;;3.83;3.30;;;21.10;34.60;;;;;;5104978;27;46961;-19
2021/12/17 02:23:18;;;;;;;3.13;2.92;;;21.10;34.60;;;;;;5106103;27;47883;-19
2021/12/17 02:28:46;;;;;;;3.40;3.03;;;21.10;34.60;;;;;;5103436;27;46897;-18
2021/12/17 02:31:24;;;;;;;3.55;3.05;;;21.10;34.50;;;;;;5106268;27;47131;-18
2021/12/17 02:33:51;;;;;;;3.47;3.13;;;21.00;34.50;;;;;;5105965;27;48144;-19
2021/12/17 02:36:23;;;;;;;3.58;3.00;;;21.00;34.50;;;;;;5106165;27;47547;-18
2021/12/17 02:38:50;;;;;;;3.38;3.00;;;21.00;34.50;;;;;;5106057;27;47013;-18
2021/12/17 02:46:45;;;;;;;3.45;2.97;;;21.00;34.50;;;;;;5103122;27;46852;-18
2021/12/17 02:49:11;;;;;;;3.88;3.20;;;21.00;34.50;;;;;;5105744;27;46941;-18
2021/12/17 02:51:40;;;;;;;2.92;2.63;;;21.00;34.40;;;;;;5105856;27;46953;-18
2021/12/17 02:54:07;;;;;;;3.47;3.10;;;21.00;34.50;;;;;;5105455;27;48046;-18
2021/12/17 02:56:33;;;;;;;3.58;2.75;;;21.00;34.50;;;;;;5105770;27;46809;-18
2021/12/17 02:59:00;;;;;;;2.90;2.50;;;21.00;34.50;;;;;;5105576;27;46731;-19
2021/12/17 03:01:27;;;;;;;3.60;2.83;;;21.00;34.50;;;;;;5105913;27;47136;-18
2021/12/17 03:03:53;;;;;;;3.65;2.95;;;21.00;35.10;;;;;;5105540;27;49157;-18
2021/12/17 03:06:20;;;;;;;3.33;3.00;;;21.00;34.50;;;;;;5105647;27;46927;-18
2021/12/17 03:08:48;;;;;;;3.42;3.13;;;21.00;34.50;;;;;;5105320;27;46818;-19
2021/12/17 03:11:16;;;;;;;3.65;2.78;;;21.00;34.40;;;;;;5105923;27;46892;-18
2021/12/17 03:13:44;;;;;;;2.55;2.35;;;21.00;34.40;;;;;;5105180;27;48787;-18
2021/12/17 03:16:23;;;;;;;3.25;2.83;;;21.00;34.40;;;;;;5105539;27;46911;-18
2021/12/17 03:19:01;;;;;;;4.68;2.80;;;21.00;34.40;;;;;;5105220;27;46900;-18
2021/12/17 03:24:15;;;;;;;3.35;2.90;;;21.00;34.40;;;;;;5102586;27;46898;-17
2021/12/17 03:26:42;;;;;;;3.25;2.80;;;21.00;34.40;;;;;;5105259;27;46888;-19
2021/12/17 03:29:09;;;;;;;3.08;2.78;;;21.00;34.40;;;;;;5105489;27;47077;-18
2021/12/17 03:31:36;;;;;;;3.63;2.85;;;21.00;34.40;;;;;;5105592;27;47001;-19
2021/12/17 03:34:14;;;;;;;2.97;2.67;;;21.00;34.40;;;;;;5104974;27;47977;-18
2021/12/17 03:36:41;;;;;;;2.92;2.63;;;21.00;34.30;;;;;;5105079;27;46978;-19
2021/12/17 03:39:08;;;;;;;3.65;2.67;;;21.00;34.40;;;;;;5105187;27;46909;-18
2021/12/17 03:41:38;;;;;;;3.42;3.13;;;21.00;34.40;;;;;;5105486;27;46952;-18
2021/12/17 03:44:05;;;;;;;3.65;2.97;;;21.00;34.40;;;;;;5108336;27;49008;-18
2021/12/17 03:46:32;;;;;;;2.95;2.65;;;21.00;34.40;;;;;;5108714;27;46855;-18
2021/12/17 03:48:59;;;;;;;2.80;2.60;;;21.00;34.30;;;;;;5108631;27;46780;-19
2021/12/17 03:51:26;;;;;;;2.50;2.30;;;21.00;34.40;;;;;;5108838;27;47341;-19
2021/12/17 03:53:54;;;;;;;2.80;2.53;;;21.00;34.40;;;;;;5108190;27;47856;-19
2021/12/17 03:56:21;;;;;;;3.75;2.90;;;21.00;34.40;;;;;;5108343;27;46959;-18
2021/12/17 03:58:50;;;;;;;3.03;2.72;;;21.00;34.40;;;;;;5108200;27;46745;-19
2021/12/17 04:01:17;;;;;;;2.65;2.45;;;21.00;34.40;;;;;;5108723;27;47155;-18
2021/12/17 04:03:43;;;;;;;2.78;2.58;;;20.90;34.40;;;;;;5108327;27;47167;-18
2021/12/17 04:06:10;;;;;;;2.90;2.70;;;21.00;34.40;;;;;;5108098;27;46900;-19
2021/12/17 04:08:37;;;;;;;3.35;3.05;;;21.00;34.40;;;;;;5108132;27;47012;-19
2021/12/17 04:11:05;;;;;;;3.45;2.75;;;21.00;34.30;;;;;;5108197;27;47174;-19
2021/12/17 04:13:34;;;;;;;2.97;2.70;;;20.90;34.30;;;;;;5108206;27;47967;-18
2021/12/17 04:16:05;;;;;;;2.75;2.55;;;20.90;34.30;;;;;;5108094;27;47352;-19
2021/12/17 04:18:33;;;;;;;4.15;2.80;;;20.90;34.30;;;;;;5107999;27;46948;-18
2021/12/17 04:21:03;;;;;;;2.75;2.50;;;20.90;34.20;;;;;;5108318;27;46886;-19
2021/12/17 04:23:31;;;;;;;2.97;2.78;;;20.90;34.30;;;;;;5107822;27;49209;-18
2021/12/17 04:25:58;;;;;;;2.90;2.58;;;20.90;34.30;;;;;;5107748;27;47448;-18
2021/12/17 04:28:25;;;;;;;2.80;2.60;;;20.90;34.30;;;;;;5107816;27;46849;-19
2021/12/17 04:30:51;;;;;;;4.18;2.70;;;20.90;34.30;;;;;;5107729;27;47276;-18
2021/12/17 04:33:19;;;;;;;2.83;2.55;;;20.90;34.30;;;;;;5107900;27;46930;-18
2021/12/17 04:35:46;;;;;;;3.20;2.60;;;20.90;34.30;;;;;;5107385;27;46848;-18
2021/12/17 04:38:15;;;;;;;3.03;2.60;;;20.90;34.30;;;;;;5107802;27;46892;-19
2021/12/17 04:40:43;;;;;;;3.22;2.60;;;20.90;34.30;;;;;;5107875;27;47043;-18
2021/12/17 04:43:16;;;;;;;2.42;2.22;;;20.90;34.20;;;;;;5107698;27;48107;-18
2021/12/17 04:45:44;;;;;;;2.65;2.45;;;20.90;34.20;;;;;;5107350;27;46874;-18
2021/12/17 04:59:11;;;;;;;3.00;2.65;;;20.90;34.10;;;;;;5104831;27;47041;-18
2021/12/17 05:01:37;;;;;;;3.25;2.95;;;20.90;34.10;;;;;;5107483;27;47184;-18
2021/12/17 05:04:05;;;;;;;2.53;2.17;;;20.90;34.10;;;;;;5106992;27;48113;-18
2021/12/17 05:06:33;;;;;;;2.85;2.47;;;20.90;34.10;;;;;;5107407;27;46986;-27
2021/12/17 05:09:07;;;;;;;2.53;2.33;;;20.90;34.10;;;;;;5107240;27;46759;-27
2021/12/17 05:19:49;;;;;;;3.00;2.58;;;20.90;34.10;;;;;;5105276;27;47004;-28
2021/12/17 05:22:18;;;;;;;2.50;2.30;;;20.90;34.10;;;;;;5107483;27;47286;-28
2021/12/17 05:24:45;;;;;;;2.40;2.20;;;20.90;33.90;;;;;;5106813;27;47060;-28
2021/12/17 05:27:12;;;;;;;2.42;2.13;;;20.90;34.00;;;;;;5107080;27;46820;-27
2021/12/17 05:29:39;;;;;;;2.47;2.28;;;20.90;34.00;;;;;;5106522;27;46848;-27
2021/12/17 05:32:06;;;;;;;2.70;2.50;;;20.80;34.00;;;;;;5107014;27;46900;-27
2021/12/17 05:34:33;;;;;;;2.40;2.20;;;20.90;34.10;;;;;;5106114;27;47034;-28
2021/12/17 05:37:00;;;;;;;2.50;2.30;;;20.90;34.00;;;;;;5106215;27;47464;-28
2021/12/17 05:39:28;;;;;;;2.70;2.50;;;20.90;34.00;;;;;;5106620;27;46926;-27
2021/12/17 05:41:55;;;;;;;2.47;2.28;;;20.90;34.10;;;;;;5106999;27;47088;-28
2021/12/17 05:44:24;;;;;;;2.47;2.28;;;20.90;34.00;;;;;;5105427;27;47960;-28
2021/12/17 05:46:51;;;;;;;2.33;2.13;;;20.90;34.00;;;;;;5106231;27;46885;-29
2021/12/17 05:49:18;;;;;;;3.03;2.47;;;20.90;34.00;;;;;;5105956;27;46881;-28
2021/12/17 05:51:44;;;;;;;2.42;2.10;;;20.90;34.00;;;;;;5106347;27;46873;-28
2021/12/17 05:54:11;;;;;;;2.60;2.40;;;20.90;34.00;;;;;;5105696;27;47062;-28
2021/12/17 05:56:39;;;;;;;2.30;2.10;;;20.90;33.80;;;;;;5106049;27;47400;-28
2021/12/17 05:59:06;;;;;;;2.60;2.40;;;20.90;33.90;;;;;;5105285;27;47083;-27
2021/12/17 06:01:33;;;;;;;2.22;2.13;;;20.90;33.90;;;;;;5106126;27;47088;-27
2021/12/17 06:04:00;;;;;;;2.40;2.20;;;20.80;33.90;;;;;;5105365;27;46899;-28
2021/12/17 06:06:28;;;;;;;2.40;2.20;;;20.90;34.00;;;;;;5105295;27;46909;-27
2021/12/17 06:08:55;;;;;;;2.42;2.22;;;20.90;33.80;;;;;;5105824;27;46901;-28
2021/12/17 06:11:22;;;;;;;2.72;2.13;;;20.90;33.80;;;;;;5090255;27;46898;-28
2021/12/17 06:13:51;;;;;;;2.20;2.00;;;20.90;33.80;;;;;;5095219;27;46842;-28
2021/12/17 06:16:18;;;;;;;2.53;2.30;;;20.90;34.50;;;;;;5084718;28;47145;-28
2021/12/17 06:18:45;;;;;;;2.22;2.13;;;20.90;33.80;;;;;;5084172;28;47109;-28
2021/12/17 06:21:11;;;;;;;2.35;1.80;;;20.80;33.80;;;;;;5084227;28;46882;-28
2021/12/17 06:23:38;;;;;;;1.90;1.80;;;20.80;33.80;;;;;;5083860;28;48542;-28
2021/12/17 06:26:05;;;;;;;2.47;2.28;;;20.80;33.70;;;;;;5083984;28;47383;-27
2021/12/17 06:28:32;;;;;;;2.10;2.00;;;20.80;33.70;;;;;;5083990;28;46816;-27
2021/12/17 06:31:00;;;;;;;2.40;2.20;;;20.80;33.70;;;;;;5084639;28;46936;-28
2021/12/17 06:33:27;;;;;;;2.70;2.50;;;20.80;33.70;;;;;;5085276;28;49062;-28
2021/12/17 06:35:53;;;;;;;2.63;2.30;;;20.80;33.60;;;;;;5084300;28;46886;-28
2021/12/17 06:38:20;;;;;;;2.17;2.05;;;20.80;33.80;;;;;;5082959;28;46787;-28
2021/12/17 06:40:48;;;;;;;2.20;2.00;;;20.80;33.70;;;;;;5082760;28;47069;-28
2021/12/17 06:43:15;;;;;;;2.20;2.00;;;20.80;33.60;;;;;;5084731;28;48181;-27
2021/12/17 06:45:52;;;;;;;2.20;2.08;;;20.80;33.70;;;;;;5084873;28;46957;-27
2021/12/17 06:48:25;;;;;;;2.28;2.10;;;20.80;33.60;;;;;;5084529;28;46898;-28
2021/12/17 06:59:12;;;;;;;3.40;1.95;;;20.80;33.60;;;;;;5082024;28;46839;-28
2021/12/17 07:18:38;;;;;;;3.33;2.63;;;20.80;33.60;;;;;;5084558;28;46996;-19
2021/12/17 07:21:19;;;;;;;2.50;2.30;;;20.80;33.60;;;;;;5087923;28;46992;-18
2021/12/17 07:35:23;;;;;;;2.90;2.60;;;20.80;33.50;;;;;;5162043;27;47103;-18
2021/12/17 07:40:33;;;;;;;2.60;2.40;;;20.80;33.50;;;;;;5162108;27;47417;-27
2021/12/17 07:43:02;;;;;;;2.72;2.50;;;20.80;33.50;;;;;;5165298;27;46820;-19
2021/12/17 07:45:41;;;;;;;3.35;2.60;;;20.80;33.40;;;;;;5164944;27;46888;-18
2021/12/17 07:48:09;;;;;;;2.95;2.50;;;20.80;33.20;;;;;;5165127;27;46860;-18
2021/12/17 07:50:35;;;;;;;3.00;2.50;;;20.70;33.40;;;;;;5164205;27;47936;-18
2021/12/17 07:53:02;;;;;;;3.00;2.70;;;20.80;33.20;;;;;;5164961;27;47018;-19
2021/12/17 07:55:29;;;;;;;3.03;2.53;;;20.80;33.50;;;;;;5164743;27;46975;-17
2021/12/17 07:57:56;;;;;;;3.38;2.67;;;20.80;33.50;;;;;;5164783;27;46948;-18
2021/12/17 08:00:41;;;;;;;2.80;2.60;;;20.70;33.50;;;;;;5164181;27;48912;-18
2021/12/17 08:03:11;;;;;;;3.67;2.80;;;20.70;33.30;;;;;;5164627;27;46923;-18
2021/12/17 08:05:38;;;;;;;2.92;2.70;;;20.80;33.30;;;;;;5164213;27;47021;-18
2021/12/17 08:08:05;;;;;;;3.17;2.70;;;20.70;33.40;;;;;;5164666;27;47093;-18
2021/12/17 08:10:32;;;;;;;3.38;2.58;;;20.70;33.30;;;;;;5163796;27;46890;-18
2021/12/17 08:12:59;;;;;;;3.22;2.70;;;20.70;33.40;;;;;;5162942;27;47123;-18
2021/12/17 08:15:32;;;;;;;2.90;2.60;;;20.70;33.40;;;;;;5164015;27;46816;-18
2021/12/17 08:18:22;;;;;;;3.22;2.92;;;20.70;33.30;;;;;;5164685;27;46917;-18
2021/12/17 08:24:28;;;;;;;3.45;2.90;;;20.70;33.40;;;;;;5156036;27;47306;-17
2021/12/17 08:26:56;;;;;;;4.18;3.22;;;20.80;33.40;;;;;;5161278;27;47016;-18
2021/12/17 08:29:31;;;;;;;4.38;2.85;;;20.70;33.50;;;;;;5150112;27;46898;-19
2021/12/17 08:31:58;;;;;;;3.40;3.10;;;20.70;33.70;;;;;;5160578;27;47916;-18
2021/12/17 08:34:25;;;;;;;3.30;3.00;;;20.80;33.80;;;;;;5145426;27;47002;-17
2021/12/17 08:36:53;;;;;;;3.50;3.00;;;20.80;33.80;;;;;;5144907;27;46906;-18
2021/12/17 08:39:19;;;;;;;3.17;2.88;;;20.80;33.80;;;;;;5155791;27;47234;-18
2021/12/17 08:41:50;;;;;;;5.75;3.38;;;20.80;33.80;;;;;;5145968;27;48208;-18
2021/12/17 08:44:16;;;;;;;3.22;2.92;;;20.80;33.80;;;;;;5140551;27;47230;-18
2021/12/17 08:46:43;;;;;;;3.30;3.00;;;20.80;34.00;;;;;;5135840;27;46882;-17
2021/12/17 08:49:10;;;;;;;3.35;2.63;;;20.90;33.70;;;;;;5136883;27;47025;-17
2021/12/17 08:51:37;;;;;;;3.58;3.05;;;20.90;33.60;;;;;;5147856;27;48100;-18
2021/12/17 08:54:05;;;;;;;5.47;3.20;;;20.90;33.70;;;;;;5139599;27;47073;-18
2021/12/17 08:56:32;;;;;;;4.40;3.10;;;20.90;33.70;;;;;;5139961;27;46891;-18
2021/12/17 08:59:01;;;;;;;3.40;3.10;;;20.90;33.70;;;;;;5141068;27;46906;-17
2021/12/17 09:01:28;;;;;;;5.20;3.45;;;20.90;33.70;;;;;;5128637;27;49088;-18
2021/12/17 09:03:54;;;;;;;3.38;3.08;;;20.90;33.70;;;;;;5136774;27;46878;-19
2021/12/17 09:06:24;;;;;;;3.33;3.00;;;20.90;33.70;;;;;;5131472;27;46966;-18
2021/12/17 09:08:54;;;;;;;3.38;3.05;;;20.90;33.60;;;;;;5136731;27;47264;-18
2021/12/17 09:11:23;;;;;;;3.78;3.38;;;21.00;33.50;;;;;;5147394;27;48252;-18
2021/12/17 09:13:50;;;;;;;3.92;3.53;;;21.00;33.50;;;;;;5142211;27;47545;-18
2021/12/17 09:16:17;;;;;;;3.58;3.25;;;21.00;33.40;;;;;;5128446;27;46968;-18
2021/12/17 09:18:45;;;;;;;3.67;3.38;;;21.00;33.50;;;;;;5130110;27;46953;-18
2021/12/17 09:21:11;;;;;;;4.28;3.47;;;21.00;33.50;;;;;;5127895;27;48773;-17
2021/12/17 09:23:39;;;;;;;6.15;3.80;;;21.00;33.50;;;;;;5132323;27;46906;-19
2021/12/17 09:26:05;;;;;;;3.75;3.30;;;21.00;33.40;;;;;;5149061;27;46854;-18
2021/12/17 09:28:34;;;;;;;4.45;3.70;;;21.00;33.50;;;;;;5146006;27;46914;-17
2021/12/17 09:31:01;;;;;;;4.63;3.90;;;21.00;33.50;;;;;;5145795;27;47905;-17
2021/12/17 09:33:28;;;;;;;4.78;3.63;;;21.00;33.40;;;;;;5146212;27;47320;-18
2021/12/17 09:35:54;;;;;;;4.75;3.55;;;21.00;33.50;;;;;;5131522;27;47089;-17
2021/12/17 09:38:21;;;;;;;4.28;3.60;;;21.00;33.40;;;;;;5129197;27;46894;-19
2021/12/17 09:40:49;;;;;;;3.90;3.38;;;21.00;33.50;;;;;;5148517;27;48053;-19
2021/12/17 09:43:15;;;;;;;4.70;3.95;;;21.10;33.60;;;;;;5140779;27;47425;-19
2021/12/17 09:45:44;;;;;;;4.60;3.90;;;21.10;33.50;;;;;;5128811;27;46908;-19
2021/12/17 09:48:10;;;;;;;3.95;3.55;;;21.10;33.40;;;;;;5127347;27;47556;-19
2021/12/17 09:50:37;;;;;;;4.65;3.80;;;21.10;33.40;;;;;;5136181;27;47924;-19
2021/12/17 09:53:04;;;;;;;4.38;3.85;;;21.20;33.40;;;;;;5139393;27;47166;-19
2021/12/17 09:55:31;;;;;;;5.10;3.83;;;21.20;33.30;;;;;;5130435;27;46887;-19
2021/12/17 09:57:58;;;;;;;4.93;3.85;;;21.20;33.30;;;;;;5128295;27;47155;-20
2021/12/17 10:00:26;;;;;;;6.10;3.40;;;21.30;33.40;;;;;;5148431;27;48154;-19
2021/12/17 10:02:54;;;;;;;4.10;3.70;;;21.30;33.40;;;;;;5138503;27;46898;-19
2021/12/17 10:05:22;;;;;;;4.50;4.05;;;21.30;33.30;;;;;;5144467;27;46922;-19
2021/12/17 10:07:53;;;;;;;4.35;3.95;;;21.40;33.40;;;;;;5143214;27;46874;-19
2021/12/17 10:10:20;;;;;;;11.50;3.30;;;21.40;33.20;;;;;;5133175;27;46880;-20
2021/12/17 10:12:48;;;;;;;4.03;3.63;;;21.40;33.20;;;;;;5141941;27;46978;-20
2021/12/17 10:15:16;;;;;;;3.83;3.35;;;21.40;33.30;;;;;;5145695;27;47169;-19
2021/12/17 10:17:52;;;;;;;5.55;3.92;;;21.50;33.30;;;;;;5146831;27;46917;-30
2021/12/17 10:20:22;;;;;;;4.28;3.33;;;21.40;33.20;;;;;;5147509;27;48135;-28
2021/12/17 10:22:56;;;;;;;3.97;3.08;;;21.40;33.30;;;;;;5145302;27;46823;-28
2021/12/17 10:25:22;;;;;;;3.90;3.50;;;21.40;33.40;;;;;;5126030;27;46878;-28
2021/12/17 10:27:49;;;;;;;4.38;3.50;;;21.40;33.40;;;;;;5130509;27;47067;-27
2021/12/17 10:30:18;;;;;;;5.28;3.92;;;21.40;33.40;;;;;;5131252;27;47232;-27
2021/12/17 10:32:46;;;;;;;4.55;3.78;;;21.40;33.40;;;;;;5141509;27;47143;-27
2021/12/17 10:35:14;;;;;;;4.38;3.60;;;21.40;33.50;;;;;;5146172;27;47107;-27
2021/12/17 10:37:44;;;;;;;6.10;3.65;;;21.40;33.50;;;;;;5145813;27;46948;-27
2021/12/17 10:40:22;;;;;;;5.57;3.70;;;21.40;33.50;;;;;;5145610;27;47213;-27
2021/12/17 10:42:58;;;;;;;3.72;3.38;;;21.40;33.50;;;;;;5146504;27;46818;-27
2021/12/17 10:45:27;;;;;;;4.90;3.58;;;21.50;33.50;;;;;;5146835;27;46913;-27
2021/12/17 10:48:19;;;;;;;7.43;3.65;;;21.50;33.50;;;;;;5147281;27;47339;-27
2021/12/17 10:50:46;;;;;;;3.60;3.22;;;21.50;33.50;;;;;;5147392;27;49058;-27
2021/12/17 10:53:14;;;;;;;4.30;3.30;;;21.50;33.60;;;;;;5147479;27;47408;-26
2021/12/17 10:55:44;;;;;;;3.65;3.35;;;21.50;33.60;;;;;;5147479;27;47002;-26
2021/12/17 10:58:11;;;;;;;4.18;3.60;;;21.50;33.50;;;;;;5147413;27;46907;-27
2021/12/17 11:00:45;;;;;;;4.53;3.00;;;21.50;33.50;;;;;;5146919;27;48105;-27
2021/12/17 11:03:12;;;;;;;4.18;3.40;;;21.50;33.50;;;;;;5147173;27;46960;-28
2021/12/17 11:05:46;;;;;;;3.95;3.40;;;21.50;33.40;;;;;;5147038;27;46815;-27
2021/12/17 11:08:30;;;;;;;3.50;3.20;;;21.60;33.50;;;;;;5147515;27;46904;-27
2021/12/17 11:11:05;;;;;;;4.75;3.80;;;21.60;33.50;;;;;;5146845;27;48802;-27
2021/12/17 11:13:32;;;;;;;3.63;3.33;;;21.60;33.40;;;;;;5147317;27;46850;-27
2021/12/17 11:15:58;;;;;;;4.97;3.38;;;21.60;33.50;;;;;;5146298;27;46996;-27
2021/12/17 11:18:26;;;;;;;3.42;3.13;;;21.60;33.50;;;;;;5147529;27;46914;-26
2021/12/17 11:20:55;;;;;;;4.65;3.30;;;21.60;33.50;;;;;;5146714;27;48721;-27
2021/12/17 11:23:23;;;;;;;5.72;3.95;;;21.60;33.50;;;;;;5145143;27;47060;-27
2021/12/17 11:25:53;;;;;;;4.60;3.75;;;21.50;33.30;;;;;;5145322;27;46880;-27
2021/12/17 11:28:20;;;;;;;3.92;3.53;;;21.50;33.40;;;;;;5145663;27;47294;-27
2021/12/17 11:30:48;;;;;;;3.92;3.22;;;21.60;33.50;;;;;;5145184;27;48318;-26
2021/12/17 11:33:15;;;;;;;9.13;3.50;;;21.60;33.50;;;;;;5146167;27;46845;-27
2021/12/17 11:35:43;;;;;;;6.70;3.50;;;21.60;33.50;;;;;;5146529;27;46848;-27
2021/12/17 11:38:13;;;;;;;4.57;3.33;;;21.70;33.50;;;;;;5146647;27;47313;-27
2021/12/17 11:40:41;;;;;;;4.13;3.72;;;21.70;33.40;;;;;;5146647;27;48114;-27
2021/12/17 11:43:20;;;;;;;4.55;3.30;;;21.80;33.30;;;;;;5146909;27;47171;-27
2021/12/17 11:45:57;;;;;;;3.22;2.83;;;21.90;33.20;;;;;;5147029;27;46869;-27
2021/12/17 11:48:26;;;;;;;5.05;3.75;;;21.90;33.40;;;;;;5147130;27;47121;-27
2021/12/17 11:51:04;;;;;;;3.92;3.28;;;21.80;33.50;;;;;;5146677;27;47075;-27
2021/12/17 11:53:31;;;;;;;4.15;3.38;;;21.80;33.60;;;;;;5146483;27;46940;-27
2021/12/17 11:55:58;;;;;;;4.38;2.95;;;21.80;33.60;;;;;;5146429;27;46869;-27
2021/12/17 11:58:48;;;;;;;3.47;3.10;;;21.80;33.60;;;;;;5147003;27;46955;-27
2021/12/17 12:01:17;;;;;;;3.58;2.78;;;21.80;33.60;;;;;;5146775;27;47700;-27
2021/12/17 12:03:44;;;;;;;6.18;2.78;;;21.80;33.60;;;;;;5146875;27;46778;-27
2021/12/17 12:06:12;;;;;;;2.95;2.65;;;21.90;34.20;;;;;;5146670;27;46948;-27
2021/12/17 12:08:47;;;;;;;4.15;2.92;;;21.90;33.70;;;;;;5146733;27;47260;-27
2021/12/17 12:11:15;;;;;;;4.28;2.75;;;21.90;33.60;;;;;;5146333;27;48826;-27
2021/12/17 12:13:43;;;;;;;6.38;3.20;;;21.80;33.60;;;;;;5146348;27;46977;-27
2021/12/17 12:16:12;;;;;;;5.45;2.70;;;21.80;33.70;;;;;;5146612;27;46873;-27
2021/12/17 12:18:40;;;;;;;4.28;2.88;;;21.80;33.70;;;;;;5149773;27;47027;-27
2021/12/17 12:21:07;;;;;;;2.75;2.55;;;21.80;33.70;;;;;;5149953;27;46839;-27
2021/12/17 12:23:53;;;;;;;2.90;2.70;;;21.80;33.70;;;;;;5149707;27;46896;-26
2021/12/17 12:26:38;;;;;;;4.63;2.42;;;21.90;33.70;;;;;;5149209;27;46806;-27
2021/12/17 12:29:07;;;;;;;2.95;2.70;;;21.90;33.60;;;;;;5149946;27;46941;-27
2021/12/17 12:31:52;;;;;;;3.35;3.00;;;21.90;33.60;;;;;;5149654;27;48793;-27
2021/12/17 12:34:19;;;;;;;3.25;2.95;;;21.90;33.60;;;;;;5149738;27;47384;-27
2021/12/17 12:36:48;;;;;;;2.72;2.50;;;21.90;33.70;;;;;;5149755;27;47047;-27
2021/12/17 12:39:15;;;;;;;3.40;2.70;;;21.90;33.70;;;;;;5149944;27;46908;-27
2021/12/17 12:41:47;;;;;;;3.17;2.88;;;21.90;33.70;;;;;;5149540;27;48858;-27
2021/12/17 12:44:13;;;;;;;3.03;2.72;;;21.90;33.70;;;;;;5149514;27;46808;-27
2021/12/17 12:46:52;;;;;;;2.88;2.33;;;21.90;33.70;;;;;;5149535;27;46874;-27
2021/12/17 12:49:44;;;;;;;3.28;2.83;;;21.90;33.70;;;;;;5150005;27;47016;-27
2021/12/17 12:52:22;;;;;;;3.25;2.80;;;21.90;33.70;;;;;;5149346;27;49168;-26
2021/12/17 12:54:50;;;;;;;3.08;2.88;;;21.90;33.80;;;;;;5149512;27;47118;-27
2021/12/17 12:57:24;;;;;;;3.17;2.88;;;21.90;33.90;;;;;;5149505;27;46934;-27
2021/12/17 12:59:52;;;;;;;3.05;2.85;;;21.80;33.90;;;;;;5149557;27;46833;-27
2021/12/17 13:02:20;;;;;;;3.40;3.10;;;21.80;33.90;;;;;;5149338;27;49200;-27
2021/12/17 13:04:47;;;;;;;3.05;2.75;;;21.80;33.90;;;;;;5149096;27;47028;-27
2021/12/17 13:07:14;;;;;;;3.50;2.53;;;21.80;33.90;;;;;;5149825;27;46874;-26
2021/12/17 13:09:42;;;;;;;3.15;2.85;;;21.80;34.00;;;;;;5149215;27;47250;-27
2021/12/17 13:12:10;;;;;;;3.13;2.80;;;21.70;34.00;;;;;;5149089;27;48454;-27
2021/12/17 13:14:41;;;;;;;2.88;2.67;;;21.70;34.00;;;;;;5149442;27;47275;-26
2021/12/17 13:17:29;;;;;;;2.55;2.35;;;21.70;34.00;;;;;;5147761;27;46869;-27
2021/12/17 13:22:56;;;;;;;3.67;2.65;;;21.70;34.10;;;;;;5145502;27;47305;-26
2021/12/17 13:25:26;;;;;;;2.88;2.60;;;21.70;34.10;;;;;;5148259;27;47482;-27
2021/12/17 13:27:53;;;;;;;2.95;2.53;;;21.70;34.10;;;;;;5148338;27;46964;-27
2021/12/17 13:30:24;;;;;;;2.50;2.30;;;21.70;34.10;;;;;;5148555;27;47140;-28
2021/12/17 13:32:52;;;;;;;2.75;2.45;;;21.70;34.10;;;;;;5148591;27;48316;-27
2021/12/17 13:35:21;;;;;;;2.80;2.60;;;21.70;34.20;;;;;;5148953;27;47536;-27
2021/12/17 13:37:52;;;;;;;2.85;2.65;;;21.60;34.10;;;;;;5149181;27;46857;-27
2021/12/17 13:40:23;;;;;;;2.90;2.60;;;21.60;34.20;;;;;;5149348;27;46909;-18
2021/12/17 13:42:49;;;;;;;3.80;2.65;;;21.60;34.20;;;;;;5148890;27;49043;-18
2021/12/17 13:45:18;;;;;;;2.75;2.53;;;21.60;34.20;;;;;;5145159;27;46990;-18
2021/12/17 13:47:45;;;;;;;2.78;2.58;;;21.60;34.10;;;;;;5147883;27;46917;-17
2021/12/17 13:50:13;;;;;;;2.67;2.47;;;21.50;34.20;;;;;;5146828;27;47263;-18
2021/12/17 13:52:46;;;;;;;2.78;2.58;;;21.50;34.30;;;;;;5147520;27;46947;-18
2021/12/17 13:55:13;;;;;;;2.78;2.58;;;21.50;34.40;;;;;;5147158;27;46925;-17
2021/12/17 13:57:41;;;;;;;2.65;2.45;;;21.50;34.30;;;;;;5147740;27;46850;-19
2021/12/17 14:00:10;;;;;;;2.80;2.60;;;21.50;34.40;;;;;;5147176;27;47293;-17
2021/12/17 14:02:37;;;;;;;2.80;2.60;;;21.50;34.40;;;;;;5148195;27;47905;-18
2021/12/17 14:05:05;;;;;;;2.70;2.50;;;21.40;34.40;;;;;;5148218;27;47028;-17
2021/12/17 14:07:33;;;;;;;2.63;2.30;;;21.40;34.40;;;;;;5148797;27;46840;-18
2021/12/17 14:10:02;;;;;;;3.15;2.80;;;21.40;34.40;;;;;;5148605;27;47121;-18
2021/12/17 14:12:32;;;;;;;3.17;2.60;;;21.40;34.40;;;;;;5148165;27;46827;-17
2021/12/17 14:14:59;;;;;;;3.10;2.90;;;21.40;34.50;;;;;;5148251;27;46858;-18
2021/12/17 14:17:33;;;;;;;4.07;2.70;;;21.30;34.50;;;;;;5148784;27;46934;-17
2021/12/17 14:20:04;;;;;;;2.85;2.40;;;21.30;34.60;;;;;;5148603;27;47106;-18
2021/12/17 14:22:34;;;;;;;3.15;2.85;;;21.30;34.50;;;;;;5148590;27;48130;-18
2021/12/17 14:25:17;;;;;;;3.10;2.75;;;21.30;34.60;;;;;;5147874;27;46849;-18
2021/12/17 14:27:44;;;;;;;3.72;3.05;;;21.30;34.60;;;;;;5148449;27;47036;-18
2021/12/17 14:30:12;;;;;;;3.17;2.63;;;21.20;34.50;;;;;;5147374;27;47345;-17
2021/12/17 14:32:41;;;;;;;2.78;2.58;;;21.20;34.60;;;;;;5148060;27;49064;-18
2021/12/17 14:35:09;;;;;;;3.15;2.85;;;21.10;34.50;;;;;;5146897;27;47875;-28
2021/12/17 14:37:49;;;;;;;3.58;3.00;;;21.20;34.70;;;;;;5148001;27;46975;-27
2021/12/17 14:40:30;;;;;;;3.17;2.88;;;21.10;34.80;;;;;;5147600;27;46972;-27
2021/12/17 14:42:58;;;;;;;3.85;3.45;;;21.10;34.80;;;;;;5148120;27;48110;-27
2021/12/17 14:45:33;;;;;;;3.15;2.85;;;21.10;34.90;;;;;;5147954;27;46855;-27
2021/12/17 14:48:15;;;;;;;4.13;2.70;;;21.10;34.90;;;;;;5147655;27;46898;-27
2021/12/17 15:02:13;;;;;;;4.13;3.20;;;21.00;34.90;;;;;;5147785;27;46930;-17
2021/12/17 15:04:40;;;;;;;3.15;2.78;;;21.00;34.90;;;;;;5147530;27;48084;-18
2021/12/17 15:07:06;;;;;;;3.65;3.30;;;20.90;34.90;;;;;;5147789;27;46753;-19
2021/12/17 15:09:34;;;;;;;3.13;2.83;;;20.90;34.90;;;;;;5147427;27;46866;-18
2021/12/17 15:12:12;;;;;;;3.17;2.70;;;20.90;34.90;;;;;;5147561;27;46898;-18
2021/12/17 15:14:39;;;;;;;3.97;3.40;;;20.90;34.90;;;;;;5147528;27;49035;-19
2021/12/17 15:17:06;;;;;;;3.72;2.97;;;20.90;34.90;;;;;;5147637;27;46973;-19
2021/12/17 15:19:34;;;;;;;3.55;2.88;;;20.90;35.00;;;;;;5147382;27;46923;-18
2021/12/17 15:22:00;;;;;;;4.10;3.10;;;20.90;35.00;;;;;;5147480;27;46886;-18
2021/12/17 15:24:27;;;;;;;5.50;3.53;;;20.90;35.00;;;;;;5147242;27;47850;-18
2021/12/17 15:26:54;;;;;;;3.55;3.25;;;20.90;35.00;;;;;;5147453;27;47381;-18
2021/12/17 15:29:24;;;;;;;3.35;3.05;;;20.90;35.00;;;;;;5147406;27;46933;-18